createdAt,value
2024-05-09T00:00:35.585Z,10.85
2024-05-09T00:03:07.315Z,11.43
2024-05-09T00:05:34.161Z,10.18
2024-05-09T00:08:01.018Z,12.85
2024-05-09T00:10:35.374Z,12.32
2024-05-09T00:13:04.995Z,11.88
2024-05-09T00:15:33.213Z,11.52
2024-05-09T00:17:59.974Z,10.65
2024-05-09T00:20:35.081Z,11.23
2024-05-09T00:23:06.810Z,10.77
2024-05-09T00:25:33.543Z,11.65
2024-05-09T00:28:00.075Z,12.27
2024-05-09T00:30:33.477Z,13.07
2024-05-09T00:33:02.867Z,11.98
2024-05-09T00:35:29.777Z,12.68
2024-05-09T00:37:56.567Z,12.20
2024-05-09T00:40:31.122Z,12.90
2024-05-09T00:43:05.807Z,12.20
2024-05-09T00:45:33.251Z,12.35
2024-05-09T00:48:02.589Z,12.98
2024-05-09T00:50:35.793Z,13.07
2024-05-09T00:53:06.026Z,12.02
2024-05-09T00:55:34.038Z,12.07
2024-05-09T00:58:01.570Z,13.95
2024-05-09T01:00:35.707Z,14.57
2024-05-09T01:03:06.708Z,14.07
2024-05-09T01:05:34.675Z,13.82
2024-05-09T01:08:02.248Z,15.13
2024-05-09T01:10:34.306Z,14.77
2024-05-09T01:13:06.836Z,14.32
2024-05-09T01:15:34.890Z,14.82
2024-05-09T01:18:06.330Z,14.13
2024-05-09T01:20:40.940Z,15.32
2024-05-09T01:23:10.850Z,15.35
2024-05-09T01:25:37.854Z,15.73
2024-05-09T01:28:05.084Z,15.23
2024-05-09T01:30:35.262Z,16.15
2024-05-09T01:33:08.569Z,15.02
2024-05-09T01:35:37.128Z,14.35
2024-05-09T01:38:04.300Z,15.85
2024-05-09T01:40:38.188Z,16.60
2024-05-09T01:43:07.367Z,14.70
2024-05-09T01:45:34.057Z,16.75
2024-05-09T01:48:01.037Z,14.70
2024-05-09T01:50:37.487Z,15.55
2024-05-09T01:53:08.975Z,16.00
2024-05-09T01:55:35.666Z,15.95
2024-05-09T01:58:02.170Z,15.90
2024-05-09T02:00:38.052Z,16.20
2024-05-09T02:03:15.194Z,16.73
2024-05-09T02:05:44.715Z,15.13
2024-05-09T02:08:17.018Z,16.38
2024-05-09T02:10:44.724Z,15.77
2024-05-09T02:13:11.519Z,16.52
2024-05-09T02:15:38.251Z,16.52
2024-05-09T02:18:05.489Z,17.13
2024-05-09T02:20:36.243Z,16.60
2024-05-09T02:23:05.190Z,17.23
2024-05-09T02:25:32.422Z,17.65
2024-05-09T02:27:59.202Z,16.98
2024-05-09T02:30:35.718Z,16.48
2024-05-09T02:33:06.915Z,16.17
2024-05-09T02:35:33.860Z,17.50
2024-05-09T02:38:00.618Z,16.95
2024-05-09T02:40:35.675Z,17.50
2024-05-09T02:43:05.147Z,17.00
2024-05-09T02:45:31.962Z,16.83
2024-05-09T02:47:58.813Z,17.35
2024-05-09T02:50:33.728Z,17.77
2024-05-09T02:53:05.138Z,17.58
2024-05-09T02:55:31.892Z,17.75
2024-05-09T02:57:58.377Z,18.80
2024-05-09T03:00:34.237Z,17.65
2024-05-09T03:03:07.067Z,16.25
2024-05-09T03:05:33.880Z,17.20
2024-05-09T03:08:00.719Z,17.40
2024-05-09T03:10:29.166Z,18.48
2024-05-09T03:13:06.005Z,17.90
2024-05-09T03:15:32.994Z,18.15
2024-05-09T03:18:00.742Z,18.27
2024-05-09T03:20:33.117Z,18.00
2024-05-09T03:23:01.971Z,18.05
2024-05-09T03:25:28.583Z,18.02
2024-05-09T03:27:55.076Z,16.80
2024-05-09T03:30:31.012Z,17.63
2024-05-09T03:33:18.041Z,18.73
2024-05-09T03:35:46.804Z,17.05
2024-05-09T03:38:13.988Z,18.65
2024-05-09T03:40:45.567Z,18.02
2024-05-09T03:43:13.277Z,17.42
2024-05-09T03:45:39.741Z,17.38
2024-05-09T03:48:06.740Z,17.75
2024-05-09T03:50:35.647Z,18.17
2024-05-09T03:53:03.425Z,18.15
2024-05-09T03:55:30.858Z,17.20
2024-05-09T03:57:57.507Z,17.05
2024-05-09T04:00:31.322Z,17.65
2024-05-09T04:03:05.791Z,17.60
2024-05-09T04:05:33.711Z,17.52
2024-05-09T04:08:00.426Z,17.15
2024-05-09T04:10:33.586Z,18.48
2024-05-09T04:13:01.673Z,18.90
2024-05-09T04:15:28.254Z,19.58
2024-05-09T04:17:55.079Z,19.30
2024-05-09T04:20:32.638Z,19.35
2024-05-09T04:23:10.592Z,18.73
2024-05-09T04:25:37.856Z,18.95
2024-05-09T04:28:04.892Z,17.98
2024-05-09T04:30:38.410Z,19.27
2024-05-09T04:33:09.689Z,19.50
2024-05-09T04:35:38.575Z,18.65
2024-05-09T04:38:05.895Z,18.50
2024-05-09T04:40:35.663Z,19.90
2024-05-09T04:43:04.982Z,18.52
2024-05-09T04:45:31.714Z,19.77
2024-05-09T04:47:58.638Z,18.17
2024-05-09T04:50:33.755Z,19.67
2024-05-09T04:53:04.375Z,19.98
2024-05-09T04:55:31.577Z,20.25
2024-05-09T04:57:58.132Z,20.02
2024-05-09T05:00:32.531Z,19.23
2024-05-09T05:03:06.899Z,19.23
2024-05-09T05:05:34.680Z,19.08
2024-05-09T05:08:01.407Z,19.50
2024-05-09T05:10:33.947Z,20.63
2024-05-09T05:13:23.691Z,19.33
2024-05-09T05:15:58.322Z,19.83
2024-05-09T05:18:26.858Z,19.75
2024-05-09T05:20:58.575Z,21.33
2024-05-09T05:23:25.493Z,20.77
2024-05-09T05:25:53.620Z,19.42
2024-05-09T05:28:21.456Z,18.77
2024-05-09T05:30:48.009Z,21.08
2024-05-09T05:33:16.241Z,18.63
2024-05-09T05:35:43.118Z,20.27
2024-05-09T05:38:10.522Z,21.35
2024-05-09T05:40:38.665Z,19.80
2024-05-09T05:43:10.944Z,19.63
2024-05-09T05:45:37.967Z,20.73
2024-05-09T05:48:06.324Z,20.33
2024-05-09T05:50:36.758Z,19.88
2024-05-09T05:53:09.349Z,19.85
2024-05-09T05:55:40.759Z,19.65
2024-05-09T05:58:11.427Z,21.08
2024-05-09T06:00:40.185Z,21.23
2024-05-09T06:03:09.339Z,21.48
2024-05-09T06:05:38.638Z,19.77
2024-05-09T06:08:05.661Z,19.55
2024-05-09T06:10:38.123Z,20.50
2024-05-09T06:15:33.578Z,20.17
2024-05-09T06:18:00.267Z,19.85
2024-05-09T06:20:34.924Z,21.75
2024-05-09T06:23:04.929Z,20.67
2024-05-09T06:25:31.760Z,21.83
2024-05-09T06:27:59.933Z,22.25
2024-05-09T06:30:35.185Z,22.42
2024-05-09T06:33:06.667Z,20.77
2024-05-09T06:35:33.927Z,20.33
2024-05-09T06:38:00.913Z,21.95
2024-05-09T06:40:36.237Z,23.35
2024-05-09T06:43:05.679Z,22.80
2024-05-09T06:45:32.235Z,22.38
2024-05-09T06:47:59.050Z,21.38
2024-05-09T06:50:28.592Z,24.17
2024-05-09T06:53:02.321Z,23.45
2024-05-09T06:55:29.098Z,26.52
2024-05-09T06:57:55.638Z,25.38
2024-05-09T07:00:27.771Z,26.95
2024-05-09T07:03:05.760Z,27.50
2024-05-09T07:05:33.361Z,28.35
2024-05-09T07:08:00.099Z,28.90
2024-05-09T07:10:32.864Z,28.95
2024-05-09T07:13:01.806Z,28.38
2024-05-09T07:15:28.323Z,27.80
2024-05-09T07:17:54.928Z,29.52
2024-05-09T07:20:31.398Z,27.92
2024-05-09T07:23:00.895Z,28.40
2024-05-09T07:25:27.388Z,30.83
2024-05-09T07:27:53.851Z,32.28
2024-05-09T07:30:27.803Z,32.05
2024-05-09T07:33:00.252Z,32.60
2024-05-09T07:35:27.247Z,32.97
2024-05-09T07:37:54.020Z,31.10
2024-05-09T07:40:29.022Z,31.80
2024-05-09T07:43:06.804Z,28.95
2024-05-09T07:52:23.096Z,29.85
2024-05-09T07:53:38.556Z,27.80
2024-05-09T07:56:07.212Z,30.42
2024-05-09T07:58:34.036Z,29.08
2024-05-09T08:01:02.476Z,29.83
2024-05-09T08:03:29.151Z,30.13
2024-05-09T08:05:58.428Z,31.35
2024-05-09T08:08:24.948Z,31.08
2024-05-09T08:10:51.552Z,29.40
2024-05-09T08:13:18.201Z,28.75
2024-05-09T08:15:44.925Z,29.30
2024-05-09T08:18:11.855Z,28.55
2024-05-09T08:20:39.107Z,27.95
2024-05-09T08:23:05.963Z,30.05
2024-05-09T08:25:32.521Z,29.13
2024-05-09T08:27:59.091Z,28.70
2024-05-09T08:30:32.809Z,27.30
2024-05-09T08:33:04.630Z,25.05
2024-05-09T08:35:31.906Z,25.60
2024-05-09T08:37:58.556Z,25.25
2024-05-09T08:40:32.903Z,23.88
2024-05-09T08:43:03.078Z,24.73
2024-05-09T08:45:31.298Z,23.75
2024-05-09T08:48:00.208Z,25.20
2024-05-09T08:50:35.392Z,25.42
2024-05-09T08:53:05.404Z,24.42
2024-05-09T08:55:32.210Z,25.35
2024-05-09T08:58:00.834Z,23.67
2024-05-09T09:00:35.790Z,23.92
2024-05-09T09:03:07.231Z,24.70
2024-05-09T09:05:38.361Z,25.55
2024-05-09T09:08:07.935Z,24.02
2024-05-09T09:10:35.597Z,25.75
2024-05-09T09:13:04.223Z,24.42
2024-05-09T09:15:31.101Z,23.45
2024-05-09T09:18:01.045Z,21.70
2024-05-09T09:20:35.683Z,21.52
2024-05-09T09:23:04.316Z,20.48
2024-05-09T09:25:31.165Z,18.52
2024-05-09T09:27:58.296Z,18.83
2024-05-09T09:30:35.006Z,19.05
2024-05-09T09:33:04.867Z,17.73
2024-05-09T09:35:31.753Z,17.95
2024-05-09T09:38:02.438Z,15.70
2024-05-09T09:40:35.919Z,14.73
2024-05-09T09:43:09.472Z,13.50
2024-05-09T09:45:36.526Z,14.02
2024-05-09T09:48:04.903Z,13.43
2024-05-09T09:50:35.237Z,11.40
2024-05-09T09:53:04.862Z,10.07
2024-05-09T09:55:32.954Z,9.35
2024-05-09T09:58:00.444Z,8.55
2024-05-09T10:00:32.612Z,7.43
2024-05-09T10:03:00.709Z,6.82
2024-05-09T10:05:28.334Z,5.70
2024-05-09T10:07:56.276Z,3.50
2024-05-09T10:10:32.231Z,5.82
2024-05-09T10:13:03.355Z,5.13
2024-05-09T10:15:41.829Z,3.83
2024-05-09T10:18:08.546Z,4.45
2024-05-09T10:20:42.055Z,3.60
2024-05-09T10:23:28.018Z,2.53
2024-05-09T10:25:59.815Z,2.00
2024-05-09T10:28:33.458Z,1.75
2024-05-09T10:31:10.450Z,2.17
2024-05-09T10:33:46.136Z,3.53
2024-05-09T10:36:20.110Z,2.50
2024-05-09T10:38:46.801Z,2.67
2024-05-09T10:41:13.435Z,1.83
2024-05-09T10:43:40.983Z,1.77
2024-05-09T10:46:08.574Z,1.80
2024-05-09T10:48:36.683Z,1.88
2024-05-09T10:51:04.271Z,1.85
2024-05-09T10:53:31.545Z,1.90
2024-05-09T10:55:58.575Z,1.63
2024-05-09T10:58:26.373Z,1.73
2024-05-09T11:00:56.184Z,1.80
2024-05-09T11:03:24.366Z,1.80
2024-05-09T11:05:52.719Z,2.17
2024-05-09T11:08:23.947Z,2.35
2024-05-09T11:10:52.657Z,2.25
2024-05-09T11:13:36.137Z,2.08
2024-05-09T11:16:04.410Z,2.67
2024-05-09T11:18:36.467Z,2.63
2024-05-09T11:21:11.793Z,2.40
2024-05-09T11:23:38.316Z,2.50
2024-05-09T11:26:05.304Z,2.20
2024-05-09T11:28:31.784Z,2.08
2024-05-09T11:31:09.967Z,1.75
2024-05-09T11:33:38.951Z,2.10
2024-05-09T11:36:06.805Z,2.10
2024-05-09T11:38:33.422Z,1.90
2024-05-09T11:40:59.929Z,2.13
2024-05-09T11:43:26.527Z,1.80
2024-05-09T11:45:53.283Z,1.73
2024-05-09T11:48:20.192Z,1.50
2024-05-09T11:50:46.742Z,1.58
2024-05-09T11:53:13.281Z,1.63
2024-05-09T11:55:39.781Z,1.67
2024-05-09T11:58:06.766Z,1.52
2024-05-09T12:00:37.152Z,1.42
2024-05-09T12:03:05.975Z,1.73
2024-05-09T12:05:34.217Z,1.58
2024-05-09T12:08:01.318Z,1.40
2024-05-09T12:10:33.307Z,1.63
2024-05-09T12:13:04.370Z,1.55
2024-05-09T12:15:32.408Z,1.40
2024-05-09T12:18:01.657Z,1.35
2024-05-09T12:20:36.605Z,1.17
2024-05-09T12:25:00.877Z,1.30
2024-05-09T12:27:27.522Z,1.50
2024-05-09T12:29:54.490Z,1.55
2024-05-09T12:32:21.036Z,1.50
2024-05-09T12:34:47.548Z,1.30
2024-05-09T12:37:14.210Z,1.25
2024-05-09T12:39:40.764Z,1.30
2024-05-09T12:42:07.295Z,1.65
2024-05-09T12:44:33.821Z,1.20
2024-05-09T12:47:01.350Z,1.70
2024-05-09T12:49:28.055Z,1.30
2024-05-09T12:51:54.749Z,1.40
2024-05-09T12:54:21.273Z,1.48
2024-05-09T12:56:48.106Z,1.65
2024-05-09T12:59:14.589Z,1.20
2024-05-09T13:01:41.271Z,1.42
2024-05-09T13:04:07.958Z,1.33
2024-05-09T13:06:34.602Z,1.48
2024-05-09T13:09:01.166Z,1.20
2024-05-09T13:11:27.752Z,1.55
2024-05-09T13:13:54.306Z,1.10
2024-05-09T13:16:20.934Z,1.20
2024-05-09T13:18:47.774Z,1.30
2024-05-09T13:21:14.304Z,1.42
2024-05-09T13:23:40.777Z,1.30
2024-05-09T13:26:07.346Z,1.00
2024-05-09T13:28:34.114Z,1.30
2024-05-09T13:31:00.720Z,1.20
2024-05-09T13:33:27.296Z,1.27
2024-05-09T13:35:53.833Z,1.10
2024-05-09T13:38:21.304Z,1.25
2024-05-09T13:40:49.219Z,1.48
2024-05-09T13:43:17.483Z,1.38
2024-05-09T13:45:44.411Z,1.33
2024-05-09T13:48:11.256Z,0.98
2024-05-09T13:50:39.335Z,0.90
2024-05-09T13:53:07.456Z,1.00
2024-05-09T13:55:38.160Z,1.20
2024-05-09T13:58:04.930Z,1.40
2024-05-09T14:00:42.317Z,1.30
2024-05-09T14:03:14.807Z,1.60
2024-05-09T14:05:41.778Z,1.73
2024-05-09T14:08:08.881Z,1.60
2024-05-09T14:10:35.793Z,1.55
2024-05-09T14:13:02.512Z,1.35
2024-05-09T14:15:29.160Z,2.10
2024-05-09T14:17:55.817Z,1.88
2024-05-09T14:20:30.529Z,1.70
2024-05-09T14:22:59.370Z,1.80
2024-05-09T14:25:28.301Z,1.80
2024-05-09T14:27:55.342Z,1.63
2024-05-09T14:30:30.513Z,1.63
2024-05-09T14:33:03.187Z,1.85
2024-05-09T14:35:29.836Z,2.20
2024-05-09T14:37:56.424Z,2.38
2024-05-09T14:40:35.906Z,2.38
2024-05-09T14:43:07.749Z,2.30
2024-05-09T14:45:34.641Z,2.40
2024-05-09T14:48:01.692Z,2.42
2024-05-09T14:50:35.137Z,2.40
2024-05-09T14:53:05.936Z,2.63
2024-05-09T14:55:35.185Z,2.58
2024-05-09T14:58:02.688Z,2.80
2024-05-09T15:00:35.130Z,2.88
2024-05-09T15:03:03.079Z,3.03
2024-05-09T15:05:30.047Z,3.20
2024-05-09T15:07:57.486Z,2.70
2024-05-09T15:10:33.154Z,2.67
2024-05-09T15:13:02.168Z,2.60
2024-05-09T15:15:28.689Z,2.88
2024-05-09T15:17:55.596Z,2.90
2024-05-09T15:20:31.046Z,2.88
2024-05-09T15:23:02.001Z,2.60
2024-05-09T15:25:28.784Z,2.45
2024-05-09T15:27:55.584Z,1.88
2024-05-09T15:30:29.560Z,2.28
2024-05-09T15:32:58.506Z,2.28
2024-05-09T15:35:25.042Z,2.10
2024-05-09T15:37:51.731Z,2.72
2024-05-09T15:40:25.936Z,2.63
2024-05-09T15:43:01.672Z,3.80
2024-05-09T15:45:29.184Z,3.60
2024-05-09T15:47:56.778Z,3.20
2024-05-09T15:50:35.106Z,3.40
2024-05-09T15:53:05.706Z,2.90
2024-05-09T15:55:33.991Z,2.90
2024-05-09T15:58:02.281Z,2.60
2024-05-09T16:00:37.182Z,2.50
2024-05-09T16:03:07.526Z,2.83
2024-05-09T16:05:34.511Z,2.50
2024-05-09T16:08:01.277Z,2.47
2024-05-09T16:10:32.627Z,2.10
2024-05-09T16:13:01.140Z,2.30
2024-05-09T16:15:27.863Z,2.58
2024-05-09T16:17:56.623Z,2.30
2024-05-09T16:22:52.946Z,2.83
2024-05-09T16:25:19.631Z,2.90
2024-05-09T16:27:48.765Z,3.10
2024-05-09T16:30:24.169Z,2.35
2024-05-09T16:32:55.057Z,2.88
2024-05-09T16:35:21.863Z,2.80
2024-05-09T16:37:48.706Z,2.80
2024-05-09T16:40:24.438Z,3.08
2024-05-09T16:42:56.692Z,3.20
2024-05-09T16:45:23.238Z,2.42
2024-05-09T16:47:50.356Z,3.00
2024-05-09T16:50:25.653Z,3.15
2024-05-09T16:52:55.496Z,3.00
2024-05-09T16:55:22.155Z,2.85
2024-05-09T16:57:48.931Z,2.88
2024-05-09T17:00:22.691Z,2.88
2024-05-09T17:02:57.963Z,3.15
2024-05-09T17:05:24.713Z,3.72
2024-05-09T17:07:51.621Z,3.55
2024-05-09T17:10:26.528Z,4.00
2024-05-09T17:12:58.670Z,4.35
2024-05-09T17:15:25.715Z,4.07
2024-05-09T17:17:52.249Z,4.18
2024-05-09T17:20:26.105Z,3.70
2024-05-09T17:22:59.088Z,4.05
2024-05-09T17:25:25.614Z,3.95
2024-05-09T17:27:52.231Z,5.13
2024-05-09T17:30:28.485Z,4.70
2024-05-09T17:32:59.453Z,5.05
2024-05-09T17:35:26.083Z,5.18
2024-05-09T17:37:52.593Z,4.43
2024-05-09T17:40:27.879Z,4.38
2024-05-09T17:42:59.879Z,4.53
2024-05-09T17:45:26.437Z,4.32
2024-05-09T17:50:27.309Z,3.83
2024-05-09T17:53:00.290Z,3.53
2024-05-09T17:55:26.917Z,4.07
2024-05-09T17:57:53.600Z,4.18
2024-05-09T18:00:28.983Z,4.82
2024-05-09T18:03:03.677Z,4.93
2024-05-09T18:05:30.406Z,4.82
2024-05-09T18:07:57.267Z,4.60
2024-05-09T18:10:30.132Z,4.28
2024-05-09T18:13:02.608Z,5.30
2024-05-09T18:15:29.184Z,4.63
2024-05-09T18:17:55.789Z,6.03
2024-05-09T18:20:32.728Z,6.45
2024-05-09T18:23:10.395Z,6.38
2024-05-09T18:25:37.110Z,6.00
2024-05-09T18:28:04.169Z,6.13
2024-05-09T18:30:34.556Z,7.20
2024-05-09T18:33:03.314Z,7.38
2024-05-09T18:35:30.046Z,7.38
2024-05-09T18:37:56.685Z,8.27
2024-05-09T18:40:31.327Z,8.18
2024-05-09T18:43:02.504Z,8.82
2024-05-09T18:45:29.170Z,8.20
2024-05-09T18:47:56.044Z,8.40
2024-05-09T18:50:31.868Z,8.40
2024-05-09T18:53:02.868Z,8.30
2024-05-09T18:55:29.503Z,9.10
2024-05-09T18:57:56.134Z,10.65
2024-05-09T19:00:33.203Z,8.93
2024-05-09T19:03:05.431Z,10.02
2024-05-09T19:05:33.229Z,10.18
2024-05-09T19:08:00.247Z,10.30
2024-05-09T19:10:33.653Z,10.05
2024-05-09T19:13:04.513Z,11.77
2024-05-09T19:15:34.118Z,10.38
2024-05-09T19:18:00.852Z,10.32
2024-05-09T19:20:33.176Z,10.52
2024-05-09T19:23:01.431Z,10.88
2024-05-09T19:25:27.939Z,11.05
2024-05-09T19:27:54.499Z,11.07
2024-05-09T19:30:29.799Z,10.38
2024-05-09T19:33:04.661Z,10.05
2024-05-09T19:35:31.426Z,9.02
2024-05-09T19:37:58.289Z,10.35
2024-05-09T19:40:30.734Z,9.38
2024-05-09T19:42:59.653Z,9.90
2024-05-09T19:45:26.190Z,9.65
2024-05-09T19:47:52.968Z,10.07
2024-05-09T19:50:26.369Z,11.23
2024-05-09T19:52:59.005Z,10.50
2024-05-09T19:55:25.758Z,10.40
2024-05-09T19:57:52.382Z,10.88
2024-05-09T20:00:26.000Z,10.25
2024-05-09T20:02:56.175Z,10.93
2024-05-09T20:05:23.290Z,10.40
2024-05-09T20:07:50.117Z,10.30
2024-05-09T20:10:23.512Z,10.73
2024-05-09T20:12:53.725Z,10.38
2024-05-09T20:15:20.552Z,9.27
2024-05-09T20:17:47.320Z,10.43
2024-05-09T20:20:24.482Z,10.13
2024-05-09T20:22:59.599Z,9.85
2024-05-09T20:25:26.220Z,10.15
2024-05-09T20:27:52.773Z,10.13
2024-05-09T20:30:25.570Z,10.80
2024-05-09T20:32:58.169Z,10.75
2024-05-09T20:35:26.240Z,11.07
2024-05-09T20:37:52.710Z,10.55
2024-05-09T20:40:25.796Z,10.93
2024-05-09T20:42:58.328Z,10.95
2024-05-09T20:45:24.942Z,10.93
2024-05-09T20:47:51.567Z,11.32
2024-05-09T20:50:27.880Z,10.70
2024-05-09T20:53:02.304Z,11.65
2024-05-09T20:55:29.853Z,11.52
2024-05-09T20:57:56.833Z,11.75
2024-05-09T21:00:30.093Z,12.23
2024-05-09T21:03:05.037Z,12.50
2024-05-09T21:05:31.921Z,12.30
2024-05-09T21:07:58.647Z,12.00
2024-05-09T21:10:27.121Z,11.90
2024-05-09T21:12:56.326Z,13.85
2024-05-09T21:15:22.995Z,13.27
2024-05-09T21:17:49.589Z,13.77
2024-05-09T21:20:20.464Z,13.23
2024-05-09T21:22:50.662Z,13.40
2024-05-09T21:25:17.271Z,13.50
2024-05-09T21:27:43.953Z,14.75
2024-05-09T21:30:16.059Z,13.27
2024-05-09T21:32:49.299Z,14.15
2024-05-09T21:35:17.445Z,13.57
2024-05-09T21:37:44.100Z,13.32
2024-05-09T21:40:14.010Z,12.90
2024-05-09T21:42:48.509Z,13.43
2024-05-09T21:45:15.148Z,13.07
2024-05-09T21:47:42.258Z,14.77
2024-05-09T21:50:12.502Z,14.38
2024-05-09T21:52:41.799Z,13.32
2024-05-09T21:55:08.661Z,13.45
2024-05-09T21:57:35.268Z,13.68
2024-05-09T22:00:01.827Z,13.18
2024-05-09T22:02:28.449Z,13.00
2024-05-09T22:04:55.489Z,12.35
2024-05-09T22:07:22.236Z,12.80
2024-05-09T22:09:49.008Z,12.82
2024-05-09T22:12:15.557Z,12.52
2024-05-09T22:14:42.046Z,14.02
2024-05-09T22:17:08.668Z,13.60
2024-05-09T22:19:35.657Z,13.65
2024-05-09T22:22:02.282Z,14.95
2024-05-09T22:24:28.786Z,13.55
2024-05-09T22:26:55.309Z,14.45
2024-05-09T22:29:21.793Z,13.77
2024-05-09T22:31:48.286Z,12.52
2024-05-09T22:34:14.943Z,14.15
2024-05-09T22:36:41.490Z,13.77
2024-05-09T22:39:08.067Z,14.65
2024-05-09T22:41:34.556Z,13.77
2024-05-09T22:44:02.366Z,14.52
2024-05-09T22:46:28.974Z,14.07
2024-05-09T22:48:55.687Z,14.35
2024-05-09T22:51:22.240Z,13.52
2024-05-09T22:53:48.735Z,13.63
2024-05-09T22:56:25.480Z,12.90
2024-05-09T22:58:51.998Z,13.20
2024-05-09T23:01:18.535Z,13.10
2024-05-09T23:03:45.295Z,12.45
2024-05-09T23:06:12.076Z,13.70
2024-05-09T23:08:38.625Z,12.75
2024-05-09T23:11:08.599Z,12.52
2024-05-09T23:13:35.396Z,12.23
2024-05-09T23:16:02.440Z,11.63
2024-05-09T23:18:29.236Z,11.80
2024-05-09T23:20:55.773Z,12.10
2024-05-09T23:23:22.233Z,11.85
2024-05-09T23:25:49.545Z,13.20
2024-05-09T23:28:16.072Z,12.90
2024-05-09T23:30:42.854Z,12.80
2024-05-09T23:33:13.318Z,12.20
2024-05-09T23:35:41.655Z,12.73
2024-05-09T23:38:08.146Z,12.05
2024-05-09T23:40:38.831Z,12.60
2024-05-09T23:43:09.041Z,12.73
2024-05-09T23:45:36.050Z,12.10
2024-05-09T23:48:03.248Z,12.45
2024-05-09T23:50:35.559Z,12.25
2024-05-09T23:53:05.068Z,13.60
2024-05-09T23:55:32.405Z,13.18
2024-05-09T23:57:59.468Z,12.90
